• Join FlightAware (Why Join?)
  • Login
  • US Flag 
01:41PM EDT


 

Airport Tracker/Info


-or-


 

Live Flight TrackerFlight Track Log ✈ UAL1259 ✈ 28-Apr-2013 ✈ KPHL - KORD

Flight Track Log - Related Links

Times and Time Zones

All times are in EDT time to prevent confusion due to time zone crossing. See the UAL1259 flight status page for this flight to view local times or setup timezone preferences in your user account.

Time Position Orientation Groundspeed Altitude Reporting Facility
EDT Latitude Longitude Course Direction KTS MPH feet Rate Location/Type
08:23PM 39.8773 -75.2141 72° East 172 198 500  Level FlightAware ADS-B
08:23PM 39.8781 -75.2111 71° East 174 200 600 3,000 Climbing FlightAware ADS-B
08:23PM 39.8791 -75.2082 66° East 175 201 800 2,400 Climbing FlightAware ADS-B
08:23PM 39.8815 -75.2011 66° East 179 206 1,000 1,560 Climbing FlightAware ADS-B
08:23PM 39.8874 -75.1845 65° Northeast 203 234 1,400 1,800 Climbing FlightAware ADS-B
08:23PM 39.8948 -75.1646 64° Northeast 220 253 2,000 2,580 Climbing FlightAware ADS-B
08:24PM 39.9017 -75.1462 64° Northeast 226 260 2,800 2,880 Climbing FlightAware ADS-B
08:24PM 39.9064 -75.1342 63° Northeast 236 272 3,200 2,100 Climbing FlightAware ADS-B
08:24PM 39.9089 -75.1293 56° Northeast 244 281 3,300 1,980 Climbing FlightAware ADS-B
08:24PM 39.9127 -75.1237 49° Northeast 253 291 3,500 2,400 Climbing FlightAware ADS-B
08:24PM 39.9175 -75.1185 40° Northeast 259 298 3,700 1,980 Climbing FlightAware ADS-B
08:24PM 39.9218 -75.1154 29° Northeast 266 306 3,800 2,160 Climbing FlightAware ADS-B
08:24PM 39.9303 -75.1119 18° North 273 314 4,100 3,180 Climbing FlightAware ADS-B
08:24PM 39.9384 -75.1109 North 277 319 4,500 3,000 Climbing FlightAware ADS-B
08:24PM 39.9437 -75.1114 356° North 281 323 4,600 2,640 Climbing FlightAware ADS-B
08:24PM 39.9498 -75.1132 347° North 283 326 4,900 3,300 Climbing FlightAware ADS-B
08:25PM 39.9544 -75.1155 339° North 283 326 5,100 3,420 Climbing FlightAware ADS-B
08:25PM 39.9584 -75.1181 334° Northwest 283 326 5,300 2,640 Climbing FlightAware ADS-B
08:25PM 39.9642 -75.1236 324° Northwest 283 326 5,500 3,240 Climbing FlightAware ADS-B
08:25PM 39.9691 -75.1298 316° Northwest 282 325 5,900 4,200 Climbing FlightAware ADS-B
08:25PM 39.9739 -75.1370 311° West 280 322 6,200 3,180 Climbing FlightAware ADS-B
08:25PM 39.9809 -75.1495 306° West 282 325 6,700 3,120 Climbing FlightAware ADS-B
08:25PM 39.9922 -75.1715 304° West 285 328 7,500 3,060 Climbing FlightAware ADS-B
08:26PM 40.0046 -75.1946 305° West 294 338 8,300 2,880 Climbing FlightAware ADS-B
08:26PM 40.0187 -75.2185 308° West 299 344 9,100 2,400 Climbing FlightAware ADS-B
08:26PM 40.0315 -75.2403 307° West 296 341 9,600 1,560 Climbing FlightAware ADS-B
08:26PM 40.0406 -75.2558 307° West 288 331 9,800 240 Climbing FlightAware ADS-B
08:26PM 40.0497 -75.2715 307° West 297 342 9,700 -240 Descending FlightAware ADS-B
08:27PM 40.0641 -75.2952 308° West 324 373 9,700  Level FlightAware ADS-B
08:27PM 40.0783 -75.3190 308° West 336 387 9,700  Level FlightAware ADS-B
08:27PM 40.0933 -75.3443 308° West 336 387 9,700  Level FlightAware ADS-B
08:28PM 40.1082 -75.3693 308° West 336 387 9,700  Level FlightAware ADS-B
08:28PM 40.1232 -75.3943 308° West 335 386 9,700  Level FlightAware ADS-B
08:28PM 40.1379 -75.4189 308° West 335 386 9,700 360 Level FlightAware ADS-B
08:28PM 40.1524 -75.4432 308° West 335 386 9,900 2,040 Climbing FlightAware ADS-B
08:29PM 40.1856 -75.4988 308° West 341 392 11,400 2,760 Climbing FlightAware ADS-B
08:29PM 40.2156 -75.5493 308° West 349 402 12,900 2,580 Climbing FlightAware ADS-B
08:30PM 40.2533 -75.6072 310° West 368 423 14,200 2,280 Climbing FlightAware ADS-B
08:31PM 40.2925 -75.6660 311° West 378 435 15,600 2,160 Climbing FlightAware ADS-B
08:31PM 40.3317 -75.7251 311° West 379 436 16,700 1,020 Climbing FlightAware ADS-B
08:32PM 40.3669 -75.7783 311° West 377 434 16,700  Level FlightAware ADS-B
08:32PM 40.4014 -75.8304 311° West 375 432 16,700  Level FlightAware ADS-B
08:32PM 40.4169 -75.8542 311° West 373 429 16,700  Level FlightAware ADS-B
08:33PM 40.4288 -75.8768 305° West 369 425 16,700 240 Level FlightAware ADS-B
08:33PM 40.4380 -75.9001 297° West 366 421 16,800 840 Climbing FlightAware ADS-B
08:33PM 40.4465 -75.9335 289° West 366 421 17,100 2,040 Climbing FlightAware ADS-B
08:34PM 40.4573 -75.9994 282° West 367 422 18,400 1,980 Climbing FlightAware ADS-B
08:34PM 40.4689 -76.0696 282° West 382 440 19,200 1,500 Climbing FlightAware ADS-B
08:35PM 40.4803 -76.1401 282° West 393 452 20,000 1,740 Climbing FlightAware ADS-B
08:35PM 40.4917 -76.2115 282° West 403 464 21,000 1,860 Climbing FlightAware ADS-B
08:36PM 40.5037 -76.2855 282° West 409 471 21,900 960 Climbing FlightAware ADS-B
08:36PM 40.5153 -76.3592 282° West 411 473 22,000 540 Climbing FlightAware ADS-B
08:37PM 40.5270 -76.4329 282° West 413 475 22,500 1,560 Climbing FlightAware ADS-B
08:37PM 40.5393 -76.5107 282° West 412 474 23,600 2,100 Climbing FlightAware ADS-B
08:38PM 40.5511 -76.5853 282° West 410 472 24,700 1,920 Climbing FlightAware ADS-B
08:38PM 40.5554 -76.6224 279° West 409 471 25,100 1,860 Climbing FlightAware ADS-B
08:38PM 40.5625 -76.7004 277° West 406 467 26,200 2,040 Climbing FlightAware ADS-B
08:39PM 40.5692 -76.7749 277° West 402 463 27,300 2,280 Climbing FlightAware ADS-B
08:39PM 40.5760 -76.8520 277° West 389 448 28,700 2,460 Climbing FlightAware
08:40PM 40.5780 -76.8714 278° West 387 445 29,000 1,800 Climbing FlightAware ADS-B
08:40PM 40.5859 -76.9608 277° West 382 440 30,100 1,680 Climbing FlightAware ADS-B
08:41PM 40.5931 -77.0451 276° West 380 437 31,100 1,320 Climbing FlightAware ADS-B
08:42PM 40.6029 -77.1585 277° West 380 437 32,000 480 Climbing FlightAware ADS-B
08:43PM 40.6136 -77.2841 276° West 386 444 32,000  Level FlightAware ADS-B
08:43PM 40.6199 -77.3572 277° West 397 457 32,000  Level FlightAware ADS-B
08:45PM 40.6370 -77.5580 276° West 397 457 32,000  Level FlightAware
08:45PM 40.6444 -77.6512 276° West 397 457 32,000  Level FlightAware ADS-B
08:46PM 40.6502 -77.7237 276° West 397 457 32,000  Level FlightAware ADS-B
08:46PM 40.6569 -77.8032 276° West 395 455 32,000  Level FlightAware ADS-B
08:47PM 40.6680 -77.8880 280° West 395 455 32,000  Level FlightAware
08:48PM 40.6840 -77.9980 281° West 393 452 32,000  Level FlightAware
08:48PM 40.6970 -78.0910 280° West 391 450 32,000  Level FlightAware
08:49PM 40.7120 -78.1960 281° West 387 445 32,000 840 Level FlightAware
08:50PM 40.7240 -78.2880 280° West 377 434 33,200 1,440 Climbing FlightAware
08:51PM 40.7490 -78.4710 280° West 354 407 35,000 1,200 Climbing FlightAware
08:52PM 40.7610 -78.5580 280° West 353 406 35,800 660 Climbing FlightAware
08:53PM 40.7730 -78.6490 280° West 358 412 36,000 120 Climbing FlightAware
08:53PM 40.7850 -78.7410 280° West 361 415 36,000  Level FlightAware
08:54PM 40.7960 -78.8270 280° West 364 419 36,000  Level FlightAware
08:55PM 40.8090 -78.9230 280° West 366 421 36,000  Level FlightAware
08:55PM 40.8210 -79.0110 280° West 367 422 36,000  Level FlightAware
08:56PM 40.8320 -79.1020 279° West 368 423 36,000  Level FlightAware
08:57PM 40.8450 -79.1990 280° West 369 425 36,000  Level FlightAware
08:57PM 40.8560 -79.2890 279° West 370 426 36,000  Level FlightAware
08:58PM 40.8670 -79.3730 280° West 369 425 36,000  Level FlightAware
08:59PM 40.8800 -79.4790 279° West 372 428 36,000  Level FlightAware
09:00PM 40.8930 -79.5800 280° West 373 429 36,000  Level FlightAware
09:00PM 40.9040 -79.6680 279° West 377 434 36,000  Level FlightAware
09:01PM 40.9170 -79.7720 279° West 382 440 36,000  Level FlightAware
09:02PM 40.9290 -79.8720 279° West 387 445 36,000  Level FlightAware
09:02PM 40.9410 -79.9660 280° West 389 448 36,000  Level FlightAware
09:03PM 40.9540 -80.0750 279° West 390 449 36,000  Level FlightAware
09:04PM 40.9650 -80.1700 279° West 391 450 36,000  Level FlightAware
09:04PM 40.9760 -80.2640 279° West 392 451 36,000  Level FlightAware
09:05PM 40.9890 -80.3740 279° West 394 453 36,000  Level FlightAware
09:06PM 41.0010 -80.4700 279° West 396 456 36,000  Level FlightAware
09:06PM 41.0120 -80.5660 279° West 397 457 36,000  Level FlightAware
09:07PM 41.0240 -80.6730 278° West 399 459 36,000  Level FlightAware
09:08PM 41.0350 -80.7670 279° West 401 461 36,000  Level FlightAware
09:09PM 41.0460 -80.8650 278° West 402 463 36,000  Level FlightAware
09:09PM 41.0540 -80.9780 275° West 402 463 36,000  Level FlightAware
09:10PM 41.0600 -81.0750 275° West 402 463 36,000  Level FlightAware
09:11PM 41.0600 -81.1840 270° West 401 461 36,000  Level FlightAware
09:11PM 41.0590 -81.2810 269° West 401 461 36,000  Level FlightAware
09:12PM 41.0580 -81.3900 269° West 401 461 36,000  Level FlightAware
09:13PM 41.0560 -81.4910 269° West 401 461 36,000  Level FlightAware
09:13PM 41.0530 -81.5890 268° West 401 461 36,000  Level FlightAware
09:14PM 41.0540 -81.6990 271° West 404 465 36,000  Level FlightAware
09:15PM 41.0610 -81.7960 275° West 407 468 36,000  Level FlightAware
09:16PM 41.0680 -81.8950 275° West 410 472 36,000  Level FlightAware
09:16PM 41.0770 -82.0080 276° West 411 473 36,000  Level FlightAware
09:17PM 41.0840 -82.1080 275° West 413 475 36,000  Level FlightAware
09:18PM 41.0910 -82.2220 275° West 415 478 36,000  Level FlightAware
09:18PM 41.0980 -82.3250 275° West 417 480 36,000  Level FlightAware
09:19PM 41.1060 -82.4410 275° West 417 480 36,000  Level FlightAware
09:20PM 41.1120 -82.5350 275° West 415 478 36,000  Level FlightAware
09:20PM 41.1190 -82.6350 275° West 415 478 36,000  Level FlightAware
09:21PM 41.1280 -82.7960 274° West 417 480 36,000  Level FlightAware
09:22PM 41.1340 -82.8910 275° West 419 482 36,000  Level FlightAware
09:23PM 41.1400 -82.9850 275° West 421 484 36,000  Level FlightAware
09:24PM 41.1480 -83.1150 275° West 423 487 36,000  Level FlightAware
09:24PM 41.1540 -83.2190 274° West 423 487 36,000  Level FlightAware
09:25PM 41.1610 -83.3330 275° West 423 487 36,000  Level FlightAware
09:26PM 41.1660 -83.4240 274° West 423 487 36,000  Level FlightAware
09:26PM 41.1710 -83.5290 274° West 423 487 36,000  Level FlightAware
09:27PM 41.1780 -83.6430 275° West 423 487 36,000  Level FlightAware
09:28PM 41.1840 -83.7480 274° West 422 486 36,000  Level FlightAware
09:28PM 41.1890 -83.8490 274° West 423 487 36,000  Level FlightAware
09:29PM 41.1950 -83.9630 274° West 424 488 36,000  Level FlightAware
09:30PM 41.2000 -84.0710 274° West 427 491 36,000  Level FlightAware
09:30PM 41.2060 -84.1760 274° West 427 491 36,000 -300 Level FlightAware
09:31PM 41.2110 -84.2920 273° West 427 491 35,600 -780 Descending FlightAware
09:32PM 41.2170 -84.4110 274° West 429 494 34,900 -960 Descending FlightAware
09:33PM 41.2220 -84.5120 274° West 436 502 34,300 -660 Descending FlightAware
09:33PM 41.2280 -84.6340 274° West 435 501 34,000 -240 Descending FlightAware
09:34PM 41.2330 -84.7420 274° West 434 499 34,000  Level FlightAware
09:35PM 41.2380 -84.8620 273° West 434 499 34,000  Level FlightAware
09:35PM 41.2430 -84.9810 273° West 434 499 34,000  Level FlightAware
09:36PM 41.2470 -85.0770 273° West 434 499 34,000  Level FlightAware
09:37PM 41.2520 -85.1980 273° West 434 499 34,000  Level FlightAware
09:37PM 41.2560 -85.3020 273° West 435 501 34,000 -240 Level FlightAware
09:38PM 41.2600 -85.4050 273° West 437 503 33,700 -720 Descending FlightAware
09:39PM 41.2650 -85.5270 273° West 443 510 33,000 -1,020 Descending FlightAware
09:39PM 41.2690 -85.6250 273° West 443 510 32,400 -1,860 Descending FlightAware
09:40PM 41.2730 -85.7330 273° West 447 514 30,700 -3,180 Descending FlightAware
09:41PM 41.2770 -85.8530 273° West 460 529 27,900 -3,600 Descending FlightAware
09:42PM 41.2810 -85.9650 273° West 458 527 25,600 -2,220 Descending FlightAware
09:42PM 41.2940 -86.0770 279° West 445 512 25,000 -540 Descending FlightAware
09:43PM 41.3230 -86.1920 289° West 442 509 24,900 -600 Descending FlightAware
09:44PM 41.3460 -86.2820 289° West 412 474 24,200 -1,140 Descending FlightAware
09:44PM 41.3740 -86.3960 288° West 401 461 23,300 -1,080 Descending FlightAware
09:45PM 41.3960 -86.4840 288° West 411 473 22,700 -1,080 Descending FlightAware
09:46PM 41.4230 -86.5940 288° West 404 465 21,900 -1,440 Descending FlightAware
09:46PM 41.4490 -86.6970 289° West 393 452 20,600 -2,100 Descending FlightAware
09:47PM 41.4710 -86.7870 288° West 383 441 19,000 -2,340 Descending FlightAware
09:48PM 41.4950 -86.8860 288° West 376 433 17,300 -2,340 Descending FlightAware
09:49PM 41.5170 -86.9750 288° West 370 426 15,700 -2,340 Descending FlightAware
09:49PM 41.5370 -87.0580 288° West 363 418 14,200 -2,220 Descending FlightAware
09:50PM 41.5600 -87.1520 288° West 356 410 12,600 -1,680 Descending FlightAware
09:51PM 41.5920 -87.2280 299° West 352 405 11,900 -1,080 Descending FlightAware
09:51PM 41.6330 -87.2980 308° West 354 407 11,200 -1,080 Descending FlightAware
09:52PM 41.6750 -87.3710 308° West 333 383 10,400 -780 Descending FlightAware
09:53PM 41.7150 -87.4410 307° West 338 389 10,100 -240 Descending FlightAware
09:53PM 41.7570 -87.5140 308° West 336 387 10,100  Level FlightAware
09:54PM 41.7950 -87.5790 308° West 335 386 10,100  Level FlightAware
09:55PM 41.8340 -87.6560 304° West 301 346 10,100 -300 Level FlightAware
09:55PM 41.8410 -87.6950 284° West 289 333 9,800 -900 Descending FlightAware
09:56PM 41.8470 -87.7260 285° West 285 328 9,500 -1,200 Descending FlightAware
09:56PM 41.8570 -87.7770 285° West 277 319 8,900 -1,320 Descending FlightAware
09:56PM 41.8650 -87.8150 286° West 276 318 8,300 -1,500 Descending FlightAware
09:57PM 41.8710 -87.8410 287° West 276 318 7,900 -1,500 Descending FlightAware
09:57PM 41.8820 -87.8910 286° West 273 314 7,200 -900 Descending FlightAware
09:58PM 41.8870 -87.9300 280° West 260 299 7,100 -120 Descending FlightAware
09:58PM 41.8910 -87.9750 277° West 235 270 7,100 -420 Level FlightAware
09:59PM 41.8940 -88.0170 275° West 230 265 6,700 -960 Descending FlightAware
09:59PM 41.8960 -88.0400 277° West 230 265 6,400 -1,200 Descending FlightAware
10:00PM 41.8930 -88.0970 266° West 231 266 5,600 -1,140 Descending FlightAware
10:00PM 41.8910 -88.1320 266° West 230 265 5,200 -960 Descending FlightAware
10:01PM 41.9070 -88.1850 292° West 219 252 4,500 -900 Descending FlightAware
10:01PM 41.9210 -88.1880 351° North 220 253 4,300 -600 Descending FlightAware
10:01PM 41.9430 -88.1700 31° Northeast 225 259 4,100 -300 Descending FlightAware
10:02PM 41.9480 -88.1510 71° East 210 242 4,100 -300 Level FlightAware
10:02PM 41.9560 -88.1270 66° East 198 228 3,900 -1,020 Descending FlightAware
10:03PM 41.9660 -88.0880 71° East 197 227 3,200 -1,200 Descending FlightAware
10:03PM 41.9690 -88.0610 81° East 201 231 2,800 -1,080 Descending FlightAware
10:03PM 41.9690 -88.0360 90° East 200 230 2,400 -1,200 Descending FlightAware
10:04PM 41.9690 -87.9870 90° East 175 201 1,600 -1,140 Descending FlightAware
10:04PM 41.9690 -87.9610 90° East 156 180 1,200 -900 Descending FlightAware
10:05PM 41.9690 -87.9340 90° East 146 168 800 -420 Descending FlightAware
10:05PM 41.9690 -87.9090 90° East 145 167 800  Level FlightAware